sensor_id;sensor_type;location;lat;lon;timestamp;pressure;altitude;pressure_sealevel;temperature;humidity
69911;BME280;63555;49.920;17.868;2023-06-22T00:01:08;98864.66;;;17.86;100.00
69911;BME280;63555;49.920;17.868;2023-06-22T00:06:08;98872.16;;;17.90;100.00
69911;BME280;63555;49.920;17.868;2023-06-22T00:11:08;98874.00;;;17.90;100.00
69911;BME280;63555;49.920;17.868;2023-06-22T00:16:09;98878.66;;;17.88;100.00
69911;BME280;63555;49.920;17.868;2023-06-22T00:21:09;98872.13;;;17.82;100.00
69911;BME280;63555;49.920;17.868;2023-06-22T00:26:10;98875.44;;;17.76;100.00
69911;BME280;63555;49.920;17.868;2023-06-22T00:31:11;98878.75;;;17.70;100.00
69911;BME280;63555;49.920;17.868;2023-06-22T00:36:11;98875.69;;;17.65;100.00
69911;BME280;63555;49.920;17.868;2023-06-22T00:41:17;98869.16;;;17.59;100.00
69911;BME280;63555;49.920;17.868;2023-06-22T00:46:17;98875.28;;;17.51;100.00
69911;BME280;63555;49.920;17.868;2023-06-22T00:51:18;98873.53;;;17.42;100.00
69911;BME280;63555;49.920;17.868;2023-06-22T00:56:26;98876.69;;;17.38;100.00
69911;BME280;63555;49.920;17.868;2023-06-22T01:01:30;98882.59;;;17.32;100.00
69911;BME280;63555;49.920;17.868;2023-06-22T01:06:35;98884.91;;;17.27;100.00
69911;BME280;63555;49.920;17.868;2023-06-22T01:11:42;98876.69;;;17.20;100.00
69911;BME280;63555;49.920;17.868;2023-06-22T01:16:47;98880.44;;;17.09;100.00
69911;BME280;63555;49.920;17.868;2023-06-22T01:21:49;98873.22;;;17.02;100.00
69911;BME280;63555;49.920;17.868;2023-06-22T01:32:03;98874.50;;;16.98;100.00
69911;BME280;63555;49.920;17.868;2023-06-22T01:37:06;98872.16;;;16.95;100.00
69911;BME280;63555;49.920;17.868;2023-06-22T01:42:07;98874.44;;;16.90;100.00
69911;BME280;63555;49.920;17.868;2023-06-22T01:47:07;98866.22;;;16.83;100.00
69911;BME280;63555;49.920;17.868;2023-06-22T01:52:08;98872.31;;;16.75;100.00
69911;BME280;63555;49.920;17.868;2023-06-22T01:57:08;98883.41;;;16.71;100.00
69911;BME280;63555;49.920;17.868;2023-06-22T02:02:11;98890.56;;;16.70;100.00
69911;BME280;63555;49.920;17.868;2023-06-22T02:07:15;98891.25;;;16.72;100.00
69911;BME280;63555;49.920;17.868;2023-06-22T02:12:22;98887.75;;;16.72;100.00
69911;BME280;63555;49.920;17.868;2023-06-22T02:17:24;98901.91;;;16.72;100.00
69911;BME280;63555;49.920;17.868;2023-06-22T02:22:25;98905.72;;;16.70;100.00
69911;BME280;63555;49.920;17.868;2023-06-22T02:27:26;98899.13;;;16.64;100.00
69911;BME280;63555;49.920;17.868;2023-06-22T02:32:26;98905.38;;;16.55;100.00
69911;BME280;63555;49.920;17.868;2023-06-22T02:37:26;98913.19;;;16.56;100.00
69911;BME280;63555;49.920;17.868;2023-06-22T02:42:29;98905.31;;;16.65;100.00
69911;BME280;63555;49.920;17.868;2023-06-22T02:47:31;98910.75;;;16.73;100.00
69911;BME280;63555;49.920;17.868;2023-06-22T02:52:32;98914.25;;;16.73;100.00
69911;BME280;63555;49.920;17.868;2023-06-22T02:57:32;98923.38;;;16.71;100.00
69911;BME280;63555;49.920;17.868;2023-06-22T03:02:32;98917.78;;;16.64;100.00
69911;BME280;63555;49.920;17.868;2023-06-22T03:07:33;98914.56;;;16.61;100.00
69911;BME280;63555;49.920;17.868;2023-06-22T03:12:33;98923.56;;;16.60;100.00
69911;BME280;63555;49.920;17.868;2023-06-22T03:17:35;98924.84;;;16.55;100.00
69911;BME280;63555;49.920;17.868;2023-06-22T03:22:39;98916.03;;;16.55;100.00
69911;BME280;63555;49.920;17.868;2023-06-22T03:27:42;98923.31;;;16.53;100.00
69911;BME280;63555;49.920;17.868;2023-06-22T03:32:42;98927.94;;;16.51;100.00
69911;BME280;63555;49.920;17.868;2023-06-22T03:37:43;98939.97;;;16.55;100.00
69911;BME280;63555;49.920;17.868;2023-06-22T03:42:43;98952.13;;;16.67;100.00
69911;BME280;63555;49.920;17.868;2023-06-22T03:47:44;98957.94;;;16.80;100.00
69911;BME280;63555;49.920;17.868;2023-06-22T03:52:44;98969.34;;;16.91;100.00
69911;BME280;63555;49.920;17.868;2023-06-22T03:57:45;98979.41;;;16.97;100.00
69911;BME280;63555;49.920;17.868;2023-06-22T04:02:45;98978.34;;;17.07;100.00
69911;BME280;63555;49.920;17.868;2023-06-22T04:07:46;98982.84;;;17.25;100.00
69911;BME280;63555;49.920;17.868;2023-06-22T04:12:47;98985.97;;;17.38;100.00
69911;BME280;63555;49.920;17.868;2023-06-22T04:17:47;98987.94;;;17.54;100.00
69911;BME280;63555;49.920;17.868;2023-06-22T04:22:49;98981.94;;;17.69;100.00
69911;BME280;63555;49.920;17.868;2023-06-22T04:27:49;98986.91;;;17.90;100.00
69911;BME280;63555;49.920;17.868;2023-06-22T04:32:50;98984.16;;;18.08;100.00
69911;BME280;63555;49.920;17.868;2023-06-22T04:37:58;98991.50;;;18.32;100.00
69911;BME280;63555;49.920;17.868;2023-06-22T04:42:58;98997.28;;;18.53;100.00
69911;BME280;63555;49.920;17.868;2023-06-22T04:48:02;99006.06;;;18.71;100.00
69911;BME280;63555;49.920;17.868;2023-06-22T04:53:02;99007.47;;;18.92;100.00
69911;BME280;63555;49.920;17.868;2023-06-22T04:58:05;99000.81;;;19.04;100.00
69911;BME280;63555;49.920;17.868;2023-06-22T05:03:05;99010.91;;;19.26;100.00
69911;BME280;63555;49.920;17.868;2023-06-22T05:08:06;99013.09;;;19.47;100.00
69911;BME280;63555;49.920;17.868;2023-06-22T05:13:07;98996.91;;;19.65;100.00
69911;BME280;63555;49.920;17.868;2023-06-22T05:18:07;99004.56;;;19.84;100.00
69911;BME280;63555;49.920;17.868;2023-06-22T05:23:08;98999.56;;;20.06;100.00
69911;BME280;63555;49.920;17.868;2023-06-22T05:28:08;99002.84;;;20.24;100.00
69911;BME280;63555;49.920;17.868;2023-06-22T05:33:11;98998.81;;;20.44;100.00
69911;BME280;63555;49.920;17.868;2023-06-22T05:38:11;99006.78;;;20.60;100.00
69911;BME280;63555;49.920;17.868;2023-06-22T05:43:12;99016.94;;;20.73;100.00
69911;BME280;63555;49.920;17.868;2023-06-22T05:48:12;99011.72;;;20.80;100.00
69911;BME280;63555;49.920;17.868;2023-06-22T05:53:12;99014.22;;;20.89;100.00
69911;BME280;63555;49.920;17.868;2023-06-22T05:58:13;99022.66;;;21.09;100.00
69911;BME280;63555;49.920;17.868;2023-06-22T06:03:13;99030.94;;;21.30;100.00
69911;BME280;63555;49.920;17.868;2023-06-22T06:08:17;99046.38;;;21.51;100.00
69911;BME280;63555;49.920;17.868;2023-06-22T06:13:17;99043.53;;;21.76;100.00
69911;BME280;63555;49.920;17.868;2023-06-22T06:18:17;99054.03;;;22.23;100.00
69911;BME280;63555;49.920;17.868;2023-06-22T06:23:18;99057.47;;;22.32;100.00
69911;BME280;63555;49.920;17.868;2023-06-22T06:28:18;99052.88;;;22.70;100.00
69911;BME280;63555;49.920;17.868;2023-06-22T06:33:19;99056.41;;;23.00;100.00
69911;BME280;63555;49.920;17.868;2023-06-22T06:38:21;99054.72;;;22.99;100.00
69911;BME280;63555;49.920;17.868;2023-06-22T07:01:12;99043.09;;;25.84;100.00
69911;BME280;63555;49.920;17.868;2023-06-22T07:06:13;99042.22;;;26.63;100.00
69911;BME280;63555;49.920;17.868;2023-06-22T07:11:13;99041.31;;;26.82;100.00
69911;BME280;63555;49.920;17.868;2023-06-22T07:16:14;99053.41;;;27.38;100.00
69911;BME280;63555;49.920;17.868;2023-06-22T07:21:14;99053.63;;;26.78;100.00
69911;BME280;63555;49.920;17.868;2023-06-22T07:26:14;99056.00;;;26.15;100.00
69911;BME280;63555;49.920;17.868;2023-06-22T07:31:16;99058.44;;;28.04;100.00
69911;BME280;63555;49.920;17.868;2023-06-22T07:36:18;99064.78;;;30.10;100.00
69911;BME280;63555;49.920;17.868;2023-06-22T07:41:19;99059.50;;;30.39;100.00
69911;BME280;63555;49.920;17.868;2023-06-22T07:46:33;99061.41;;;30.50;100.00
69911;BME280;63555;49.920;17.868;2023-06-22T07:51:34;99062.06;;;30.10;100.00
69911;BME280;63555;49.920;17.868;2023-06-22T07:56:34;99072.91;;;29.99;100.00
69911;BME280;63555;49.920;17.868;2023-06-22T08:01:34;99075.81;;;30.16;100.00
69911;BME280;63555;49.920;17.868;2023-06-22T08:06:35;99075.59;;;30.52;100.00
69911;BME280;63555;49.920;17.868;2023-06-22T08:11:36;99079.81;;;30.13;100.00
69911;BME280;63555;49.920;17.868;2023-06-22T08:16:36;99083.84;;;30.22;100.00
69911;BME280;63555;49.920;17.868;2023-06-22T08:21:36;99086.41;;;30.59;100.00
69911;BME280;63555;49.920;17.868;2023-06-22T08:26:37;99087.25;;;31.34;100.00
69911;BME280;63555;49.920;17.868;2023-06-22T08:31:38;99088.72;;;32.27;100.00
69911;BME280;63555;49.920;17.868;2023-06-22T08:36:38;99086.91;;;31.88;98.77
69911;BME280;63555;49.920;17.868;2023-06-22T08:41:41;99080.06;;;31.17;97.11
69911;BME280;63555;49.920;17.868;2023-06-22T08:46:42;99077.41;;;31.33;96.60
69911;BME280;63555;49.920;17.868;2023-06-22T08:51:42;99072.94;;;32.29;96.56
69911;BME280;63555;49.920;17.868;2023-06-22T08:56:44;99057.81;;;31.93;91.91
69911;BME280;63555;49.920;17.868;2023-06-22T09:01:45;99056.84;;;32.16;93.18
69911;BME280;63555;49.920;17.868;2023-06-22T09:06:48;99044.25;;;34.07;92.59
69911;BME280;63555;49.920;17.868;2023-06-22T09:11:51;99058.91;;;35.12;86.16
69911;BME280;63555;49.920;17.868;2023-06-22T09:16:51;99053.41;;;36.30;82.28
69911;BME280;63555;49.920;17.868;2023-06-22T09:21:51;99048.78;;;37.31;75.45
69911;BME280;63555;49.920;17.868;2023-06-22T09:26:52;99051.16;;;37.48;71.70
69911;BME280;63555;49.920;17.868;2023-06-22T09:31:52;99044.31;;;38.23;66.01
69911;BME280;63555;49.920;17.868;2023-06-22T09:36:54;99043.13;;;38.82;61.76
69911;BME280;63555;49.920;17.868;2023-06-22T09:41:55;99046.38;;;38.37;61.44
69911;BME280;63555;49.920;17.868;2023-06-22T09:46:55;99044.03;;;39.44;61.12
69911;BME280;63555;49.920;17.868;2023-06-22T09:51:55;99043.16;;;39.68;60.08
69911;BME280;63555;49.920;17.868;2023-06-22T09:56:56;99036.38;;;39.60;60.21
69911;BME280;63555;49.920;17.868;2023-06-22T10:01:56;99034.84;;;39.87;59.06
69911;BME280;63555;49.920;17.868;2023-06-22T10:06:57;99021.03;;;40.38;57.99
69911;BME280;63555;49.920;17.868;2023-06-22T10:11:57;99022.72;;;40.34;54.40
69911;BME280;63555;49.920;17.868;2023-06-22T10:16:57;99023.13;;;41.01;55.54
69911;BME280;63555;49.920;17.868;2023-06-22T10:21:58;99013.16;;;40.72;51.93
69911;BME280;63555;49.920;17.868;2023-06-22T10:26:58;98998.94;;;40.93;44.96
69911;BME280;63555;49.920;17.868;2023-06-22T10:31:59;98995.94;;;41.66;40.03
69911;BME280;63555;49.920;17.868;2023-06-22T10:36:59;98992.91;;;41.77;35.55
69911;BME280;63555;49.920;17.868;2023-06-22T10:41:59;98988.00;;;42.27;33.55
69911;BME280;63555;49.920;17.868;2023-06-22T10:47:00;98982.50;;;42.58;32.13
69911;BME280;63555;49.920;17.868;2023-06-22T10:52:00;98985.69;;;42.20;32.04
69911;BME280;63555;49.920;17.868;2023-06-22T10:57:01;98986.78;;;42.11;31.22
69911;BME280;63555;49.920;17.868;2023-06-22T11:02:02;98981.34;;;42.59;31.05
69911;BME280;63555;49.920;17.868;2023-06-22T11:07:02;98975.44;;;41.98;31.93
69911;BME280;63555;49.920;17.868;2023-06-22T11:12:03;98961.44;;;41.59;30.95
69911;BME280;63555;49.920;17.868;2023-06-22T11:17:04;98967.94;;;42.52;30.99
69911;BME280;63555;49.920;17.868;2023-06-22T11:22:04;98967.03;;;42.04;30.80
69911;BME280;63555;49.920;17.868;2023-06-22T11:27:05;98951.25;;;41.46;30.03
69911;BME280;63555;49.920;17.868;2023-06-22T11:32:06;98954.41;;;41.53;31.24
69911;BME280;63555;49.920;17.868;2023-06-22T11:37:07;98961.47;;;39.99;32.76
69911;BME280;63555;49.920;17.868;2023-06-22T11:42:09;98932.41;;;40.16;32.50
69911;BME280;63555;49.920;17.868;2023-06-22T11:47:09;98930.75;;;41.11;31.27
69911;BME280;63555;49.920;17.868;2023-06-22T11:52:09;98912.09;;;41.39;30.64
69911;BME280;63555;49.920;17.868;2023-06-22T11:57:10;98898.16;;;41.21;30.83
69911;BME280;63555;49.920;17.868;2023-06-22T12:02:10;98905.47;;;41.03;31.16
69911;BME280;63555;49.920;17.868;2023-06-22T12:07:11;98896.47;;;40.98;30.11
69911;BME280;63555;49.920;17.868;2023-06-22T12:12:11;98903.31;;;40.73;30.92
69911;BME280;63555;49.920;17.868;2023-06-22T12:17:11;98895.28;;;40.22;32.26
69911;BME280;63555;49.920;17.868;2023-06-22T12:22:12;98887.59;;;40.19;31.92
69911;BME280;63555;49.920;17.868;2023-06-22T12:27:12;98881.56;;;40.44;32.08
69911;BME280;63555;49.920;17.868;2023-06-22T12:32:13;98882.28;;;40.50;31.07
69911;BME280;63555;49.920;17.868;2023-06-22T12:37:13;98874.69;;;40.00;31.39
69911;BME280;63555;49.920;17.868;2023-06-22T12:42:15;98875.97;;;39.24;31.90
69911;BME280;63555;49.920;17.868;2023-06-22T12:47:16;98862.53;;;38.99;32.19
69911;BME280;63555;49.920;17.868;2023-06-22T12:52:16;98863.25;;;39.09;31.97
69911;BME280;63555;49.920;17.868;2023-06-22T12:57:16;98854.56;;;38.97;32.81
69911;BME280;63555;49.920;17.868;2023-06-22T13:02:17;98849.16;;;39.43;32.49
69911;BME280;63555;49.920;17.868;2023-06-22T13:07:18;98850.69;;;39.82;31.53
69911;BME280;63555;49.920;17.868;2023-06-22T13:12:20;98843.09;;;39.60;30.81
69911;BME280;63555;49.920;17.868;2023-06-22T13:17:20;98847.59;;;39.84;32.09
69911;BME280;63555;49.920;17.868;2023-06-22T13:27:29;98842.03;;;38.86;32.20
69911;BME280;63555;49.920;17.868;2023-06-22T13:32:29;98831.09;;;38.81;33.33
69911;BME280;63555;49.920;17.868;2023-06-22T13:37:30;98822.75;;;38.67;34.39
69911;BME280;63555;49.920;17.868;2023-06-22T13:42:31;98819.25;;;38.62;31.20
69911;BME280;63555;49.920;17.868;2023-06-22T13:47:31;98818.78;;;38.54;32.91
69911;BME280;63555;49.920;17.868;2023-06-22T13:52:31;98812.94;;;37.89;32.79
69911;BME280;63555;49.920;17.868;2023-06-22T13:57:32;98810.75;;;38.15;32.34
69911;BME280;63555;49.920;17.868;2023-06-22T14:02:33;98809.41;;;38.74;32.58
69911;BME280;63555;49.920;17.868;2023-06-22T14:07:33;98804.09;;;39.15;32.00
69911;BME280;63555;49.920;17.868;2023-06-22T14:12:33;98798.91;;;39.60;32.71
69911;BME280;63555;49.920;17.868;2023-06-22T14:17:34;98797.22;;;39.92;31.59
69911;BME280;63555;49.920;17.868;2023-06-22T14:22:34;98797.44;;;39.95;31.93
69911;BME280;63555;49.920;17.868;2023-06-22T14:27:35;98795.06;;;39.89;31.25
69911;BME280;63555;49.920;17.868;2023-06-22T14:32:35;98786.34;;;40.23;30.83
69911;BME280;63555;49.920;17.868;2023-06-22T14:37:36;98783.06;;;40.34;30.41
69911;BME280;63555;49.920;17.868;2023-06-22T14:42:36;98776.03;;;40.15;30.76
69911;BME280;63555;49.920;17.868;2023-06-22T14:47:36;98777.22;;;39.81;31.44
69911;BME280;63555;49.920;17.868;2023-06-22T14:52:37;98764.44;;;39.71;31.58
69911;BME280;63555;49.920;17.868;2023-06-22T14:57:37;98763.63;;;39.57;30.30
69911;BME280;63555;49.920;17.868;2023-06-22T15:02:38;98775.28;;;39.08;31.82
69911;BME280;63555;49.920;17.868;2023-06-22T15:07:39;98772.72;;;38.93;32.08
69911;BME280;63555;49.920;17.868;2023-06-22T15:12:39;98760.38;;;38.34;33.62
69911;BME280;63555;49.920;17.868;2023-06-22T15:17:40;98750.09;;;37.15;35.78
69911;BME280;63555;49.920;17.868;2023-06-22T15:22:40;98734.22;;;36.23;36.97
69911;BME280;63555;49.920;17.868;2023-06-22T15:27:40;98723.34;;;36.03;38.46
69911;BME280;63555;49.920;17.868;2023-06-22T15:32:45;98719.94;;;35.62;40.17
69911;BME280;63555;49.920;17.868;2023-06-22T15:37:46;98726.06;;;35.13;39.99
69911;BME280;63555;49.920;17.868;2023-06-22T15:42:49;98723.81;;;34.44;40.97
69911;BME280;63555;49.920;17.868;2023-06-22T15:47:50;98725.91;;;34.06;42.06
69911;BME280;63555;49.920;17.868;2023-06-22T15:52:50;98726.13;;;33.95;42.62
69911;BME280;63555;49.920;17.868;2023-06-22T15:57:51;98713.91;;;33.60;43.21
69911;BME280;63555;49.920;17.868;2023-06-22T16:02:53;98710.59;;;33.11;43.86
69911;BME280;63555;49.920;17.868;2023-06-22T16:07:55;98707.19;;;32.67;44.32
69911;BME280;63555;49.920;17.868;2023-06-22T16:12:56;98703.19;;;32.20;45.75
69911;BME280;63555;49.920;17.868;2023-06-22T17:11:12;98665.16;;;28.40;52.74
69911;BME280;63555;49.920;17.868;2023-06-22T17:16:13;98662.13;;;28.18;53.53
69911;BME280;63555;49.920;17.868;2023-06-22T17:21:20;98645.34;;;27.98;54.26
69911;BME280;63555;49.920;17.868;2023-06-22T17:26:21;98646.59;;;27.84;55.47
69911;BME280;63555;49.920;17.868;2023-06-22T17:31:22;98638.69;;;27.64;55.89
69911;BME280;63555;49.920;17.868;2023-06-22T17:36:25;98639.38;;;27.41;56.91
69911;BME280;63555;49.920;17.868;2023-06-22T17:41:32;98633.50;;;27.26;57.62
69911;BME280;63555;49.920;17.868;2023-06-22T17:46:37;98636.84;;;27.10;58.24
69911;BME280;63555;49.920;17.868;2023-06-22T17:51:42;98620.69;;;26.96;59.14
69911;BME280;63555;49.920;17.868;2023-06-22T17:56:47;98622.31;;;26.79;59.21
69911;BME280;63555;49.920;17.868;2023-06-22T18:01:48;98618.91;;;26.65;59.73
69911;BME280;63555;49.920;17.868;2023-06-22T18:06:48;98611.75;;;26.53;59.81
69911;BME280;63555;49.920;17.868;2023-06-22T18:11:49;98607.28;;;26.40;59.76
69911;BME280;63555;49.920;17.868;2023-06-22T18:16:50;98595.34;;;26.23;60.41
69911;BME280;63555;49.920;17.868;2023-06-22T18:21:53;98597.97;;;26.05;60.80
69911;BME280;63555;49.920;17.868;2023-06-22T18:26:55;98605.34;;;25.84;61.38
69911;BME280;63555;49.920;17.868;2023-06-22T18:31:56;98605.06;;;25.61;62.53
69911;BME280;63555;49.920;17.868;2023-06-22T18:36:57;98608.06;;;25.39;63.54
69911;BME280;63555;49.920;17.868;2023-06-22T18:41:59;98604.22;;;25.16;64.14
69911;BME280;63555;49.920;17.868;2023-06-22T18:47:03;98609.44;;;24.91;65.41
69911;BME280;63555;49.920;17.868;2023-06-22T18:52:04;98609.88;;;24.68;66.25
69911;BME280;63555;49.920;17.868;2023-06-22T18:57:26;98609.50;;;24.44;66.78
69911;BME280;63555;49.920;17.868;2023-06-22T19:13:29;98620.19;;;23.78;69.02
69911;BME280;63555;49.920;17.868;2023-06-22T19:18:35;98626.94;;;23.55;69.57
69911;BME280;63555;49.920;17.868;2023-06-22T19:23:36;98621.44;;;23.35;70.32
69911;BME280;63555;49.920;17.868;2023-06-22T19:28:48;98611.19;;;23.10;70.87
69911;BME280;63555;49.920;17.868;2023-06-22T19:34:06;98607.16;;;22.93;71.75
69911;BME280;63555;49.920;17.868;2023-06-22T19:39:08;98616.53;;;22.76;72.13
69911;BME280;63555;49.920;17.868;2023-06-22T19:44:08;98620.97;;;22.55;72.68
69911;BME280;63555;49.920;17.868;2023-06-22T19:49:09;98620.91;;;22.28;74.09
69911;BME280;63555;49.920;17.868;2023-06-22T19:54:09;98606.94;;;22.11;74.94
69911;BME280;63555;49.920;17.868;2023-06-22T19:59:13;98613.44;;;22.02;75.17
69911;BME280;63555;49.920;17.868;2023-06-22T20:04:15;98612.97;;;21.98;75.19
69911;BME280;63555;49.920;17.868;2023-06-22T20:09:15;98608.00;;;21.95;75.52
69911;BME280;63555;49.920;17.868;2023-06-22T20:14:19;98602.38;;;21.90;75.48
69911;BME280;63555;49.920;17.868;2023-06-22T20:19:19;98607.44;;;21.78;75.75
69911;BME280;63555;49.920;17.868;2023-06-22T20:24:21;98601.88;;;21.65;76.27
69911;BME280;63555;49.920;17.868;2023-06-22T20:29:29;98588.41;;;21.58;76.81
69911;BME280;63555;49.920;17.868;2023-06-22T20:34:37;98595.94;;;21.48;76.65
69911;BME280;63555;49.920;17.868;2023-06-22T20:39:38;98600.63;;;21.25;77.63
69911;BME280;63555;49.920;17.868;2023-06-22T20:44:39;98602.53;;;21.16;78.08
69911;BME280;63555;49.920;17.868;2023-06-22T20:49:39;98603.84;;;21.06;78.19
69911;BME280;63555;49.920;17.868;2023-06-22T20:54:40;98593.41;;;20.96;78.34
69911;BME280;63555;49.920;17.868;2023-06-22T20:59:40;98597.09;;;20.80;78.72
69911;BME280;63555;49.920;17.868;2023-06-22T21:04:40;98586.44;;;20.72;78.92
69911;BME280;63555;49.920;17.868;2023-06-22T21:09:41;98588.84;;;20.67;79.07
69911;BME280;63555;49.920;17.868;2023-06-22T21:14:41;98593.00;;;20.55;79.21
69911;BME280;63555;49.920;17.868;2023-06-22T21:19:42;98591.78;;;20.43;80.03
69911;BME280;63555;49.920;17.868;2023-06-22T21:24:42;98590.00;;;20.35;79.95
69911;BME280;63555;49.920;17.868;2023-06-22T21:29:42;98568.25;;;20.15;80.74
69911;BME280;63555;49.920;17.868;2023-06-22T21:34:43;98533.91;;;20.04;81.35
69911;BME280;63555;49.920;17.868;2023-06-22T21:39:44;98523.91;;;19.98;81.51
69911;BME280;63555;49.920;17.868;2023-06-22T21:44:47;98522.25;;;19.97;81.45
69911;BME280;63555;49.920;17.868;2023-06-22T21:49:48;98506.88;;;19.91;81.50
69911;BME280;63555;49.920;17.868;2023-06-22T21:54:49;98484.34;;;19.85;81.47
69911;BME280;63555;49.920;17.868;2023-06-22T21:59:49;98467.50;;;19.62;82.92
69911;BME280;63555;49.920;17.868;2023-06-22T22:04:50;98451.88;;;19.51;82.91
69911;BME280;63555;49.920;17.868;2023-06-22T22:09:53;98446.59;;;19.42;82.95
69911;BME280;63555;49.920;17.868;2023-06-22T22:14:53;98443.44;;;19.39;82.88
69911;BME280;63555;49.920;17.868;2023-06-22T22:19:54;98435.31;;;19.32;83.51
69911;BME280;63555;49.920;17.868;2023-06-22T22:24:54;98435.66;;;19.29;83.34
69911;BME280;63555;49.920;17.868;2023-06-22T22:29:54;98433.34;;;19.26;83.03
69911;BME280;63555;49.920;17.868;2023-06-22T22:34:55;98435.72;;;19.21;82.98
69911;BME280;63555;49.920;17.868;2023-06-22T22:39:55;98435.25;;;19.18;83.17
69911;BME280;63555;49.920;17.868;2023-06-22T22:44:55;98439.41;;;19.20;83.13
69911;BME280;63555;49.920;17.868;2023-06-22T22:49:56;98415.22;;;19.14;83.03
69911;BME280;63555;49.920;17.868;2023-06-22T22:54:56;98408.66;;;18.93;83.62
69911;BME280;63555;49.920;17.868;2023-06-22T22:59:57;98395.72;;;18.82;83.78
69911;BME280;63555;49.920;17.868;2023-06-22T23:04:59;98375.25;;;18.74;84.06
69911;BME280;63555;49.920;17.868;2023-06-22T23:10:00;98390.44;;;18.74;84.04
69911;BME280;63555;49.920;17.868;2023-06-22T23:15:00;98385.25;;;18.72;84.02
69911;BME280;63555;49.920;17.868;2023-06-22T23:20:01;98373.44;;;18.67;84.59
69911;BME280;63555;49.920;17.868;2023-06-22T23:25:04;98375.66;;;18.63;84.80
69911;BME280;63555;49.920;17.868;2023-06-22T23:30:05;98370.47;;;18.62;84.63
69911;BME280;63555;49.920;17.868;2023-06-22T23:35:08;98388.66;;;18.58;84.59
69911;BME280;63555;49.920;17.868;2023-06-22T23:40:10;98388.47;;;18.60;84.62
69911;BME280;63555;49.920;17.868;2023-06-22T23:45:18;98366.28;;;18.59;84.42
69911;BME280;63555;49.920;17.868;2023-06-22T23:50:19;98358.69;;;18.48;84.80
69911;BME280;63555;49.920;17.868;2023-06-22T23:55:20;98367.75;;;18.39;85.01
